createdAt,value
2022-10-19T00:02:30.755Z,81.21
2022-10-19T00:05:33.241Z,82.17
2022-10-19T00:08:35.701Z,82.82
2022-10-19T00:11:40.407Z,83.20
2022-10-19T00:14:42.820Z,82.58
2022-10-19T00:17:45.194Z,81.64
2022-10-19T00:20:47.681Z,81.13
2022-10-19T00:23:50.126Z,81.92
2022-10-19T00:26:52.543Z,81.58
2022-10-19T00:29:54.910Z,81.52
2022-10-19T00:32:57.447Z,81.29
2022-10-19T00:35:59.806Z,81.29
2022-10-19T00:39:04.615Z,80.80
2022-10-19T00:42:10.954Z,80.66
2022-10-19T00:45:16.305Z,79.99
2022-10-19T00:48:30.677Z,80.20
2022-10-19T00:51:35.060Z,80.51
2022-10-19T00:54:39.239Z,80.52
2022-10-19T00:57:41.791Z,81.38
2022-10-19T01:00:44.285Z,80.63
2022-10-19T01:03:46.815Z,80.81
2022-10-19T01:06:49.234Z,80.23
2022-10-19T01:09:52.736Z,81.30
2022-10-19T01:13:15.278Z,82.47
2022-10-19T01:16:27.478Z,82.29
2022-10-19T01:19:35.671Z,81.29
2022-10-19T01:23:08.862Z,81.93
2022-10-19T01:26:32.945Z,83.12
2022-10-19T01:30:12.941Z,83.17
2022-10-19T01:33:18.230Z,84.44
2022-10-19T01:36:33.020Z,82.86
2022-10-19T01:39:46.409Z,81.97
2022-10-19T01:42:58.396Z,81.27
2022-10-19T01:46:32.070Z,81.88
2022-10-19T01:49:47.510Z,81.67
2022-10-19T01:52:50.978Z,80.86
2022-10-19T01:55:54.385Z,81.42
2022-10-19T01:58:58.372Z,80.63
2022-10-19T02:02:03.364Z,81.25
2022-10-19T02:05:06.539Z,82.15
2022-10-19T02:08:19.310Z,82.10
2022-10-19T02:11:23.468Z,83.34
2022-10-19T02:14:31.222Z,84.58
2022-10-19T02:17:37.419Z,85.72
2022-10-19T02:20:40.009Z,84.30
2022-10-19T02:23:42.555Z,83.24
2022-10-19T02:26:45.223Z,83.54
2022-10-19T02:29:47.938Z,85.03
2022-10-19T02:32:50.756Z,85.06
2022-10-19T02:35:53.239Z,83.40
2022-10-19T02:38:55.607Z,83.44
2022-10-19T02:42:03.491Z,84.51
2022-10-19T02:45:17.746Z,83.43
2022-10-19T02:48:22.941Z,82.62
2022-10-19T02:51:36.854Z,82.59
2022-10-19T02:54:40.859Z,82.01
2022-10-19T02:57:43.247Z,81.46
2022-10-19T03:00:45.691Z,80.24
2022-10-19T03:03:48.460Z,81.45
2022-10-19T03:06:50.827Z,81.89
2022-10-19T03:09:53.268Z,81.52
2022-10-19T03:12:58.173Z,81.90
2022-10-19T03:16:11.115Z,81.10
2022-10-19T03:19:13.806Z,80.67
2022-10-19T03:22:16.831Z,82.00
2022-10-19T03:25:19.268Z,82.44
2022-10-19T03:28:21.627Z,82.45
2022-10-19T03:31:25.681Z,81.84
2022-10-19T03:34:28.115Z,80.54
2022-10-19T03:37:30.496Z,81.68
2022-10-19T03:40:33.663Z,81.47
2022-10-19T03:43:36.051Z,80.46
2022-10-19T03:46:39.300Z,80.93
2022-10-19T03:49:43.508Z,80.59
2022-10-19T03:52:45.884Z,80.54
2022-10-19T03:55:48.218Z,80.23
2022-10-19T03:58:51.736Z,81.00
2022-10-19T04:01:54.118Z,80.85
2022-10-19T04:04:56.488Z,79.35
2022-10-19T04:07:58.891Z,80.06
2022-10-19T04:11:03.165Z,79.67
2022-10-19T04:14:05.815Z,79.51
2022-10-19T04:17:09.143Z,78.74
2022-10-19T04:20:11.708Z,78.54
2022-10-19T04:26:23.223Z,79.63
2022-10-19T04:29:29.598Z,79.78
2022-10-19T04:32:33.092Z,80.02
2022-10-19T04:35:35.423Z,79.83
2022-10-19T04:38:38.450Z,79.89
2022-10-19T04:41:40.948Z,81.59
2022-10-19T04:44:43.502Z,81.53
2022-10-19T04:47:45.845Z,81.44
2022-10-19T04:50:48.256Z,81.17
2022-10-19T04:53:59.546Z,82.43
2022-10-19T04:57:02.326Z,83.58
2022-10-19T05:00:05.390Z,83.76
2022-10-19T05:03:07.969Z,83.77
2022-10-19T05:06:11.432Z,84.19
2022-10-19T05:09:13.905Z,83.60
2022-10-19T05:12:16.465Z,83.47
2022-10-19T05:15:19.313Z,83.69
2022-10-19T05:18:21.770Z,83.18
2022-10-19T05:21:24.876Z,83.32
2022-10-19T05:24:27.509Z,83.70
2022-10-19T05:27:29.911Z,83.43
2022-10-19T05:30:32.902Z,83.60
2022-10-19T05:33:35.926Z,84.65
2022-10-19T05:36:39.927Z,84.52
2022-10-19T05:39:42.902Z,83.11
2022-10-19T05:42:45.392Z,83.50
2022-10-19T05:45:47.945Z,84.70
2022-10-19T05:48:50.469Z,84.53
2022-10-19T05:51:53.017Z,83.93
2022-10-19T05:54:56.872Z,83.90
2022-10-19T05:57:59.320Z,83.35
2022-10-19T06:01:02.692Z,84.67
2022-10-19T06:04:07.100Z,85.28
2022-10-19T06:07:09.640Z,85.74
2022-10-19T06:10:12.466Z,86.06
2022-10-19T06:13:16.045Z,85.97
2022-10-19T06:16:20.194Z,86.72
2022-10-19T06:19:22.674Z,86.71
2022-10-19T06:22:25.093Z,86.56
2022-10-19T06:25:27.469Z,84.96
2022-10-19T06:28:30.068Z,84.88
2022-10-19T06:31:34.813Z,84.64
2022-10-19T06:34:37.240Z,84.76
2022-10-19T06:37:39.675Z,83.93
2022-10-19T06:40:42.752Z,83.44
2022-10-19T06:43:52.311Z,83.23
2022-10-19T06:46:54.643Z,82.75
2022-10-19T06:49:57.553Z,81.77
2022-10-19T06:53:00.105Z,80.85
2022-10-19T06:56:04.772Z,81.29
2022-10-19T06:59:07.136Z,80.08
2022-10-19T07:02:13.082Z,79.01
2022-10-19T07:05:15.705Z,78.12
2022-10-19T07:08:18.150Z,77.63
2022-10-19T07:11:22.503Z,76.64
2022-10-19T07:14:25.389Z,75.58
2022-10-19T07:17:27.851Z,78.23
2022-10-19T07:20:30.449Z,78.83
2022-10-19T07:23:34.640Z,79.20
2022-10-19T07:26:37.064Z,78.56
2022-10-19T07:29:39.477Z,76.52
2022-10-19T07:32:46.746Z,75.07
2022-10-19T07:35:49.687Z,74.73
2022-10-19T07:38:52.688Z,73.13
2022-10-19T07:41:55.094Z,72.05
2022-10-19T07:44:57.559Z,72.60
2022-10-19T07:48:00.171Z,71.45
2022-10-19T07:51:06.393Z,72.42
2022-10-19T07:54:09.614Z,71.83
2022-10-19T08:02:20.619Z,68.73
2022-10-19T08:05:23.134Z,68.72
2022-10-19T08:08:25.889Z,67.92
2022-10-19T08:11:31.275Z,68.24
2022-10-19T08:14:34.118Z,67.29
2022-10-19T08:17:37.062Z,68.42
2022-10-19T08:20:45.766Z,68.70
2022-10-19T08:23:48.812Z,69.97
2022-10-19T08:26:52.247Z,68.76
2022-10-19T08:29:54.963Z,67.11
2022-10-19T08:32:57.367Z,65.96
2022-10-19T08:35:59.707Z,66.10
2022-10-19T08:39:05.277Z,63.84
2022-10-19T08:42:57.547Z,63.58
2022-10-19T08:46:33.785Z,64.70
2022-10-19T08:49:36.505Z,62.94
2022-10-19T08:52:39.336Z,61.84
2022-10-19T08:55:54.563Z,63.29
2022-10-19T08:59:12.970Z,64.66
2022-10-19T09:02:20.803Z,66.00
2022-10-19T09:05:40.655Z,65.38
2022-10-19T09:08:44.116Z,65.22
2022-10-19T09:11:50.326Z,64.49
2022-10-19T09:14:59.784Z,64.37
2022-10-19T09:18:03.607Z,64.14
2022-10-19T09:21:20.839Z,62.39
2022-10-19T09:24:44.428Z,62.02
2022-10-19T09:27:49.840Z,61.92
2022-10-19T09:30:55.805Z,62.12
2022-10-19T09:34:26.436Z,62.16
2022-10-19T09:40:37.614Z,61.97
2022-10-19T09:43:45.123Z,61.25
2022-10-19T09:47:13.922Z,60.26
2022-10-19T09:50:25.954Z,61.98
2022-10-19T09:53:29.839Z,60.95
2022-10-19T09:56:38.546Z,60.99
2022-10-19T09:59:42.581Z,60.96
2022-10-19T10:02:53.431Z,61.19
2022-10-19T10:05:58.695Z,61.19
2022-10-19T10:09:01.826Z,61.33
2022-10-19T10:12:04.711Z,58.88
2022-10-19T10:15:07.827Z,58.44
2022-10-19T10:18:16.129Z,57.74
2022-10-19T10:21:25.784Z,57.31
2022-10-19T10:24:31.305Z,56.30
2022-10-19T10:27:38.935Z,55.95
2022-10-19T10:30:41.936Z,54.44
2022-10-19T10:33:45.555Z,55.33
2022-10-19T10:36:53.928Z,56.00
2022-10-19T10:40:00.528Z,55.50
2022-10-19T10:43:15.909Z,54.82
2022-10-19T10:46:22.381Z,55.19
2022-10-19T10:49:28.386Z,55.31
2022-10-19T10:52:31.461Z,55.31
2022-10-19T10:55:34.423Z,55.47
2022-10-19T10:59:02.457Z,55.15
2022-10-19T11:02:11.927Z,55.51
2022-10-19T11:05:20.577Z,55.01
2022-10-19T11:08:47.088Z,56.15
2022-10-19T11:11:55.886Z,57.07
2022-10-19T11:15:11.960Z,57.08
2022-10-19T11:18:27.267Z,57.24
2022-10-19T11:21:42.986Z,56.84
2022-10-19T11:25:12.615Z,55.09
2022-10-19T11:28:42.920Z,54.85
2022-10-19T11:31:55.418Z,54.36
2022-10-19T11:35:06.177Z,53.88
2022-10-19T11:38:20.347Z,52.70
2022-10-19T11:41:27.850Z,53.39
2022-10-19T11:44:43.608Z,53.03
2022-10-19T11:48:04.392Z,53.37
2022-10-19T11:51:25.828Z,53.83
2022-10-19T11:54:49.446Z,54.51
2022-10-19T11:58:17.953Z,55.06
2022-10-19T12:01:46.634Z,53.69
2022-10-19T12:05:02.140Z,53.52
2022-10-19T12:08:16.500Z,52.86
2022-10-19T12:11:36.596Z,52.83
2022-10-19T12:14:40.795Z,52.05
2022-10-19T12:17:45.531Z,54.38
2022-10-19T12:20:51.529Z,55.05
2022-10-19T12:23:54.816Z,56.03
2022-10-19T12:26:57.981Z,60.15
2022-10-19T12:30:08.026Z,60.28
2022-10-19T12:33:21.301Z,60.83
2022-10-19T12:36:33.104Z,60.47
2022-10-19T12:39:49.915Z,59.89
2022-10-19T12:43:33.694Z,53.18
2022-10-19T12:46:42.702Z,53.42
2022-10-19T12:49:50.627Z,51.66
2022-10-19T12:52:55.310Z,47.07
2022-10-19T12:55:59.268Z,45.45
2022-10-19T12:59:01.953Z,45.94
2022-10-19T13:02:25.636Z,50.05
2022-10-19T13:05:29.884Z,52.80
2022-10-19T13:08:39.070Z,47.59
2022-10-19T13:12:25.851Z,51.15
2022-10-19T13:15:33.975Z,54.32
2022-10-19T13:19:01.191Z,55.37
2022-10-19T13:22:25.737Z,56.35
2022-10-19T13:25:41.503Z,58.18
2022-10-19T13:28:54.551Z,58.01
2022-10-19T13:32:35.632Z,59.45
2022-10-19T13:35:39.031Z,59.74
2022-10-19T13:38:50.392Z,54.97
2022-10-19T13:41:54.180Z,49.37
2022-10-19T13:44:56.724Z,47.50
2022-10-19T13:48:10.276Z,51.94
2022-10-19T13:51:33.631Z,53.71
2022-10-19T13:55:11.601Z,47.47
2022-10-19T13:58:38.450Z,51.60
2022-10-19T14:02:15.140Z,55.25
2022-10-19T14:05:43.472Z,56.45
2022-10-19T14:09:23.805Z,57.29
2022-10-19T14:12:29.724Z,57.06
2022-10-19T14:15:34.654Z,56.49
2022-10-19T14:18:37.707Z,54.08
2022-10-19T14:21:40.136Z,52.16
2022-10-19T14:24:42.493Z,55.60
2022-10-19T14:27:46.205Z,57.53
2022-10-19T14:30:55.775Z,59.82
2022-10-19T14:34:01.664Z,58.27
2022-10-19T14:37:04.095Z,59.38
2022-10-19T14:40:26.784Z,59.83
2022-10-19T14:43:31.674Z,60.06
2022-10-19T14:46:34.732Z,60.54
2022-10-19T14:49:37.256Z,60.23
2022-10-19T14:52:40.410Z,60.19
2022-10-19T14:55:43.186Z,60.36
2022-10-19T14:58:50.529Z,61.18
2022-10-19T15:01:57.428Z,61.79
2022-10-19T15:05:02.039Z,61.66
2022-10-19T15:08:11.489Z,61.05
2022-10-19T15:11:40.909Z,60.49
2022-10-19T15:14:43.500Z,60.26
2022-10-19T15:17:54.003Z,59.59
2022-10-19T15:21:12.071Z,60.10
2022-10-19T15:24:26.615Z,61.13
2022-10-19T15:27:47.202Z,61.53
2022-10-19T15:31:04.384Z,60.62
2022-10-19T15:34:35.806Z,61.14
2022-10-19T15:37:41.901Z,61.72
2022-10-19T15:40:46.053Z,62.45
2022-10-19T15:43:50.732Z,62.74
2022-10-19T15:47:14.786Z,62.50
2022-10-19T15:50:31.554Z,62.96
2022-10-19T15:53:33.943Z,63.20
2022-10-19T15:56:39.144Z,63.37
2022-10-19T15:59:41.591Z,60.32
2022-10-19T16:02:44.228Z,62.29
2022-10-19T16:05:47.198Z,62.42
2022-10-19T16:08:51.249Z,61.80
2022-10-19T16:11:57.088Z,61.37
2022-10-19T16:14:59.488Z,59.28
2022-10-19T16:18:02.073Z,56.94
2022-10-19T16:21:05.284Z,58.39
2022-10-19T16:24:08.095Z,55.21
2022-10-19T16:27:15.041Z,54.10
2022-10-19T16:30:17.893Z,52.99
2022-10-19T16:33:20.579Z,50.58
2022-10-19T16:36:23.060Z,49.53
2022-10-19T16:39:25.663Z,48.80
2022-10-19T16:42:30.449Z,49.04
2022-10-19T16:45:33.453Z,48.21
2022-10-19T16:48:35.966Z,48.81
2022-10-19T16:51:42.116Z,49.42
2022-10-19T16:54:44.465Z,48.07
2022-10-19T16:57:46.823Z,48.31
2022-10-19T17:00:49.259Z,48.58
2022-10-19T17:03:51.923Z,48.05
2022-10-19T17:06:54.583Z,48.31
2022-10-19T17:09:57.159Z,47.76
2022-10-19T17:12:59.983Z,49.25
2022-10-19T17:16:03.693Z,48.28
2022-10-19T17:19:08.127Z,48.51
2022-10-19T17:22:11.016Z,48.88
2022-10-19T17:25:13.710Z,47.76
2022-10-19T17:28:16.121Z,47.55
2022-10-19T17:31:19.002Z,46.89
2022-10-19T17:34:21.780Z,46.97
2022-10-19T17:37:24.460Z,47.55
2022-10-19T17:40:33.134Z,47.79
2022-10-19T17:43:37.984Z,48.00
2022-10-19T17:46:40.676Z,48.96
2022-10-19T17:49:43.520Z,49.82
2022-10-19T17:52:46.736Z,48.36
2022-10-19T17:55:49.136Z,46.92
2022-10-19T17:58:52.465Z,47.37
2022-10-19T18:01:55.156Z,48.06
2022-10-19T18:04:57.829Z,49.05
2022-10-19T18:08:00.431Z,48.52
2022-10-19T18:11:07.699Z,47.95
2022-10-19T18:14:11.634Z,47.61
2022-10-19T18:17:14.244Z,46.33
2022-10-19T18:20:19.645Z,48.40
2022-10-19T18:23:22.447Z,48.95
2022-10-19T18:26:27.380Z,48.55
2022-10-19T18:29:30.260Z,48.68
2022-10-19T18:32:33.232Z,48.50
2022-10-19T18:35:37.395Z,49.13
2022-10-19T18:38:40.245Z,49.11
2022-10-19T18:41:44.423Z,49.82
2022-10-19T18:44:47.358Z,49.84
2022-10-19T18:47:51.120Z,49.70
2022-10-19T18:50:53.972Z,51.39
2022-10-19T18:53:56.675Z,47.64
2022-10-19T18:56:59.847Z,47.08
2022-10-19T19:00:02.541Z,46.50
2022-10-19T19:03:05.270Z,48.71
2022-10-19T19:06:11.188Z,49.72
2022-10-19T19:09:14.166Z,50.64
2022-10-19T19:12:17.216Z,48.75
2022-10-19T19:15:20.187Z,48.37
2022-10-19T19:18:23.193Z,48.38
2022-10-19T19:21:28.452Z,48.38
2022-10-19T19:24:32.770Z,48.28
2022-10-19T19:27:35.417Z,48.38
2022-10-19T19:30:42.753Z,49.40
2022-10-19T19:33:46.123Z,50.11
2022-10-19T19:36:49.161Z,49.68
2022-10-19T19:39:51.767Z,48.56
2022-10-19T19:42:54.368Z,47.69
2022-10-19T19:46:00.036Z,48.21
2022-10-19T19:49:05.347Z,48.68
2022-10-19T19:52:08.000Z,49.55
2022-10-19T19:55:10.600Z,50.73
2022-10-19T19:58:15.477Z,50.93
2022-10-19T20:01:19.739Z,52.35
2022-10-19T20:04:22.450Z,51.21
2022-10-19T20:07:26.841Z,51.11
2022-10-19T20:10:30.279Z,48.32
2022-10-19T20:13:33.437Z,49.96
2022-10-19T20:16:36.977Z,50.25
2022-10-19T20:19:39.712Z,51.73
2022-10-19T20:22:46.201Z,52.44
2022-10-19T20:25:48.831Z,51.95
2022-10-19T20:28:52.140Z,51.29
2022-10-19T20:31:55.933Z,50.91
2022-10-19T20:34:59.955Z,51.60
2022-10-19T20:38:04.219Z,52.29
2022-10-19T20:41:09.262Z,53.32
2022-10-19T20:44:11.655Z,53.28
2022-10-19T20:47:14.176Z,52.96
2022-10-19T20:50:20.599Z,54.41
2022-10-19T20:53:24.325Z,55.16
2022-10-19T20:56:29.447Z,56.82
2022-10-19T20:59:33.298Z,56.73
2022-10-19T21:02:36.095Z,55.78
2022-10-19T21:05:38.907Z,55.78
2022-10-19T21:08:41.513Z,56.15
2022-10-19T21:11:45.290Z,56.63
2022-10-19T21:14:49.157Z,57.37
2022-10-19T21:17:51.548Z,58.71
2022-10-19T21:20:53.931Z,59.57
2022-10-19T21:23:58.919Z,60.83
2022-10-19T21:27:02.628Z,60.99
2022-10-19T21:30:05.309Z,61.27
2022-10-19T21:33:07.667Z,61.52
2022-10-19T21:36:10.900Z,61.60
2022-10-19T21:39:13.640Z,61.87
2022-10-19T21:42:16.033Z,60.97
2022-10-19T21:45:29.849Z,61.48
2022-10-19T21:48:34.028Z,61.83
2022-10-19T21:51:39.899Z,61.04
2022-10-19T21:54:42.376Z,61.60
2022-10-19T21:57:46.480Z,61.93
2022-10-19T22:00:50.158Z,62.80
2022-10-19T22:04:00.262Z,63.91
2022-10-19T22:07:02.635Z,64.11
2022-10-19T22:10:05.389Z,64.40
2022-10-19T22:13:07.904Z,63.88
2022-10-19T22:16:19.037Z,63.95
2022-10-19T22:19:21.520Z,64.04
2022-10-19T22:22:23.890Z,64.04
2022-10-19T22:25:26.198Z,64.82
2022-10-19T22:28:28.771Z,65.00
2022-10-19T22:31:32.243Z,65.98
2022-10-19T22:34:34.584Z,67.31
2022-10-19T22:37:36.990Z,67.73
2022-10-19T22:40:41.396Z,67.87
2022-10-19T22:43:43.811Z,68.64
2022-10-19T22:46:46.132Z,69.56
2022-10-19T22:49:48.666Z,69.98
2022-10-19T22:52:51.040Z,70.16
2022-10-19T22:55:53.451Z,69.50
2022-10-19T22:59:00.289Z,70.18
2022-10-19T23:02:02.848Z,69.34
2022-10-19T23:05:05.701Z,69.54
2022-10-19T23:08:08.074Z,69.79
2022-10-19T23:11:10.759Z,70.43
2022-10-19T23:14:13.101Z,70.16
2022-10-19T23:17:15.451Z,69.98
2022-10-19T23:20:19.564Z,70.55
2022-10-19T23:23:22.459Z,70.81
2022-10-19T23:26:25.102Z,71.32
2022-10-19T23:29:27.606Z,71.10
2022-10-19T23:32:30.146Z,69.89
2022-10-19T23:35:32.475Z,69.40
2022-10-19T23:38:35.634Z,70.06
2022-10-19T23:41:38.061Z,70.38
2022-10-19T23:44:40.432Z,71.47
2022-10-19T23:47:42.771Z,71.66
2022-10-19T23:50:56.699Z,71.71
2022-10-19T23:53:59.434Z,72.54
2022-10-19T23:57:01.937Z,71.66
